createdAt,value
2022-09-28T00:02:11.875Z,2.67
2022-09-28T00:04:38.564Z,3.22
2022-09-28T00:07:32.600Z,1.38
2022-09-28T00:10:11.297Z,2.30
2022-09-28T00:12:37.893Z,1.58
2022-09-28T00:15:05.075Z,1.60
2022-09-28T00:21:05.410Z,1.75
2022-09-28T00:23:32.454Z,1.85
2022-09-28T00:26:03.339Z,1.55
2022-09-28T00:28:29.913Z,2.23
2022-09-28T00:31:40.151Z,3.30
2022-09-28T00:34:06.738Z,3.17
2022-09-28T00:36:33.907Z,1.80
2022-09-28T00:39:04.706Z,3.80
2022-09-28T00:41:45.239Z,1.90
2022-09-28T00:44:41.909Z,1.67
2022-09-28T00:47:24.351Z,1.50
2022-09-28T00:49:57.444Z,3.78
2022-09-28T00:52:28.842Z,2.85
2022-09-28T00:54:57.110Z,2.13
2022-09-28T01:00:49.029Z,2.83
2022-09-28T01:03:16.243Z,2.88
2022-09-28T01:05:44.719Z,1.98
2022-09-28T01:08:12.764Z,2.77
2022-09-28T01:10:40.527Z,2.03
2022-09-28T01:13:07.189Z,4.03
2022-09-28T01:15:42.559Z,2.53
2022-09-28T01:18:17.041Z,2.90
2022-09-28T01:21:05.360Z,4.20
2022-09-28T01:23:53.492Z,3.97
2022-09-28T01:26:34.650Z,4.90
2022-09-28T01:29:08.845Z,4.97
2022-09-28T01:31:36.838Z,3.15
2022-09-28T01:34:08.411Z,3.47
2022-09-28T01:36:41.160Z,3.40
2022-09-28T01:39:10.876Z,3.72
2022-09-28T01:41:42.212Z,5.50
2022-09-28T01:44:14.697Z,4.75
2022-09-28T01:46:43.157Z,5.53
2022-09-28T01:49:14.806Z,3.88
2022-09-28T01:51:47.944Z,5.85
2022-09-28T01:54:21.986Z,6.80
2022-09-28T01:56:54.456Z,5.45
2022-09-28T01:59:25.084Z,5.50
2022-09-28T02:01:55.932Z,6.10
2022-09-28T02:04:27.712Z,4.35
2022-09-28T02:07:00.927Z,6.80
2022-09-28T02:09:33.773Z,4.35
2022-09-28T02:12:08.373Z,6.37
2022-09-28T02:14:39.385Z,5.60
2022-09-28T02:17:06.395Z,6.32
2022-09-28T02:19:33.833Z,5.15
2022-09-28T02:22:08.663Z,7.20
2022-09-28T02:24:38.645Z,4.63
2022-09-28T02:27:15.762Z,5.15
2022-09-28T02:29:42.375Z,6.03
2022-09-28T02:32:08.993Z,6.03
2022-09-28T02:34:35.995Z,5.72
2022-09-28T02:37:03.247Z,6.17
2022-09-28T02:39:29.796Z,7.35
2022-09-28T02:42:04.449Z,6.55
2022-09-28T02:44:47.386Z,6.70
2022-09-28T02:47:26.262Z,6.07
2022-09-28T02:50:03.640Z,8.17
2022-09-28T02:52:47.736Z,4.68
2022-09-28T02:55:24.203Z,4.90
2022-09-28T02:58:08.404Z,7.25
2022-09-28T03:00:44.689Z,5.03
2022-09-28T03:03:18.160Z,6.47
2022-09-28T03:05:53.197Z,7.35
2022-09-28T03:08:24.642Z,7.68
2022-09-28T03:10:58.533Z,8.00
2022-09-28T03:13:26.776Z,5.43
2022-09-28T03:16:07.532Z,8.27
2022-09-28T03:18:34.170Z,5.63
2022-09-28T03:21:01.737Z,6.65
2022-09-28T03:23:28.636Z,6.20
2022-09-28T03:25:55.497Z,11.57
2022-09-28T03:28:22.075Z,8.60
2022-09-28T03:30:48.764Z,9.18
2022-09-28T03:33:16.870Z,7.53
2022-09-28T03:35:46.727Z,8.63
2022-09-28T03:38:13.328Z,6.05
2022-09-28T03:40:39.900Z,6.67
2022-09-28T03:43:06.785Z,7.35
2022-09-28T03:45:33.316Z,9.07
2022-09-28T03:48:00.131Z,10.98
2022-09-28T03:50:28.080Z,7.10
2022-09-28T03:52:54.617Z,7.87
2022-09-28T03:55:21.679Z,12.15
2022-09-28T03:57:53.677Z,7.30
2022-09-28T04:00:20.362Z,10.73
2022-09-28T04:02:46.903Z,10.88
2022-09-28T04:05:13.620Z,10.73
2022-09-28T04:07:41.700Z,10.25
2022-09-28T04:10:09.202Z,12.65
2022-09-28T04:12:35.740Z,11.35
2022-09-28T04:15:02.425Z,9.77
2022-09-28T04:17:28.944Z,10.87
2022-09-28T04:19:55.851Z,9.30
2022-09-28T04:22:22.546Z,12.25
2022-09-28T04:24:50.500Z,11.63
2022-09-28T04:27:17.084Z,11.95
2022-09-28T04:29:43.960Z,10.93
2022-09-28T04:32:10.930Z,9.60
2022-09-28T04:34:41.872Z,11.60
2022-09-28T04:37:10.531Z,9.95
2022-09-28T04:39:37.056Z,8.82
2022-09-28T04:42:05.420Z,9.57
2022-09-28T04:44:31.990Z,12.35
2022-09-28T04:47:02.877Z,11.38
2022-09-28T04:49:31.467Z,11.95
2022-09-28T04:51:58.067Z,10.90
2022-09-28T04:54:25.170Z,10.73
2022-09-28T04:56:52.105Z,9.50
2022-09-28T04:59:20.366Z,11.38
2022-09-28T05:01:46.930Z,9.35
2022-09-28T05:04:13.469Z,12.20
2022-09-28T05:06:40.018Z,12.23
2022-09-28T05:09:06.841Z,10.60
2022-09-28T05:11:33.596Z,9.30
2022-09-28T05:14:00.384Z,12.43
2022-09-28T05:16:28.909Z,11.13
2022-09-28T05:18:56.006Z,8.70
2022-09-28T05:21:22.970Z,9.75
2022-09-28T05:23:49.826Z,11.05
2022-09-28T05:26:16.362Z,12.05
2022-09-28T05:28:43.126Z,11.85
2022-09-28T05:31:10.315Z,9.93
2022-09-28T05:33:38.537Z,12.27
2022-09-28T05:36:08.387Z,12.38
2022-09-28T05:38:35.030Z,11.90
2022-09-28T05:41:06.268Z,10.55
2022-09-28T05:43:35.140Z,13.60
2022-09-28T05:46:02.265Z,10.18
2022-09-28T05:48:29.115Z,9.02
2022-09-28T05:50:57.459Z,7.97
2022-09-28T05:53:24.623Z,11.70
2022-09-28T05:55:51.803Z,11.27
2022-09-28T05:58:21.187Z,11.15
2022-09-28T06:00:56.536Z,11.80
2022-09-28T06:03:23.761Z,9.55
2022-09-28T06:05:50.397Z,10.20
2022-09-28T06:08:19.320Z,9.47
2022-09-28T06:10:46.878Z,9.55
2022-09-28T06:13:14.026Z,11.63
2022-09-28T06:15:42.867Z,9.57
2022-09-28T06:18:11.463Z,9.23
2022-09-28T06:20:42.258Z,10.00
2022-09-28T06:23:13.571Z,9.10
2022-09-28T06:25:41.865Z,10.05
2022-09-28T06:28:10.724Z,9.52
2022-09-28T06:30:38.105Z,11.00
2022-09-28T06:33:06.231Z,10.80
2022-09-28T06:35:33.060Z,10.55
2022-09-28T06:38:00.466Z,9.95
2022-09-28T06:40:30.137Z,7.63
2022-09-28T06:43:00.580Z,8.02
2022-09-28T06:45:29.785Z,7.47
2022-09-28T06:47:58.211Z,7.25
2022-09-28T06:50:25.854Z,7.03
2022-09-28T06:52:54.547Z,6.47
2022-09-28T06:55:21.879Z,6.57
2022-09-28T06:57:59.003Z,4.77
2022-09-28T07:00:27.477Z,6.45
2022-09-28T07:02:55.753Z,5.80
2022-09-28T07:05:32.130Z,6.15
2022-09-28T07:07:58.793Z,5.00
2022-09-28T07:10:27.644Z,5.33
2022-09-28T07:12:55.096Z,5.13
2022-09-28T07:15:24.806Z,5.25
2022-09-28T07:18:01.863Z,4.82
2022-09-28T07:20:31.726Z,4.25
2022-09-28T07:23:15.633Z,5.47
2022-09-28T07:25:44.629Z,5.07
2022-09-28T07:28:11.813Z,6.70
2022-09-28T07:30:40.126Z,4.80
2022-09-28T07:33:09.384Z,4.30
2022-09-28T07:35:35.904Z,3.40
2022-09-28T07:38:06.432Z,3.95
2022-09-28T07:40:35.347Z,4.20
2022-09-28T07:43:05.370Z,4.25
2022-09-28T07:45:34.503Z,3.35
2022-09-28T07:48:05.660Z,4.90
2022-09-28T07:50:35.943Z,6.55
2022-09-28T10:20:31.970Z,2.65
2022-09-28T10:23:00.688Z,3.20
2022-09-28T10:25:28.058Z,4.05
2022-09-28T10:27:55.273Z,2.38
2022-09-28T10:30:23.988Z,2.40
2022-09-28T10:32:52.086Z,3.40
2022-09-28T10:35:24.690Z,4.23
2022-09-28T10:38:01.620Z,2.60
2022-09-28T10:40:37.709Z,2.38
2022-09-28T10:43:08.193Z,1.52
2022-09-28T10:45:36.912Z,5.03
2022-09-28T10:48:16.419Z,3.97
2022-09-28T10:50:43.394Z,2.90
2022-09-28T10:53:18.898Z,2.05
2022-09-28T10:55:57.139Z,1.67
2022-09-28T10:58:29.753Z,2.15
2022-09-28T11:01:02.419Z,3.10
2022-09-28T11:03:30.474Z,2.97
2022-09-28T11:05:59.515Z,1.83
2022-09-28T11:08:39.210Z,1.98
2022-09-28T11:11:09.389Z,2.75
2022-09-28T11:13:45.529Z,1.30
2022-09-28T11:16:22.664Z,2.10
2022-09-28T11:18:49.856Z,5.30
2022-09-28T11:21:21.732Z,1.30
2022-09-28T11:24:03.393Z,4.32
2022-09-28T11:26:39.747Z,1.30
2022-09-28T11:29:08.522Z,3.03
2022-09-28T11:31:36.782Z,5.78
2022-09-28T11:34:12.441Z,3.83
2022-09-28T11:37:03.107Z,3.90
2022-09-28T11:39:41.174Z,1.90
2022-09-28T11:42:31.638Z,2.10
2022-09-28T11:45:10.665Z,2.55
2022-09-28T11:47:53.185Z,1.83
2022-09-28T11:50:31.027Z,1.65
2022-09-28T11:53:04.718Z,1.70
2022-09-28T11:55:39.085Z,3.75
2022-09-28T11:58:12.420Z,1.67
2022-09-28T12:00:46.327Z,1.80
2022-09-28T12:03:16.870Z,2.35
2022-09-28T12:05:49.340Z,1.47
2022-09-28T12:08:22.590Z,2.25
2022-09-28T12:10:54.758Z,1.65
2022-09-28T12:13:26.180Z,1.88
2022-09-28T12:18:49.695Z,4.40
2022-09-28T12:21:37.395Z,4.20
2022-09-28T12:24:12.612Z,2.22
2022-09-28T12:26:48.601Z,1.52
2022-09-28T12:29:23.937Z,2.25
2022-09-28T12:32:02.856Z,2.50
2022-09-28T12:34:29.594Z,4.53
2022-09-28T12:37:08.183Z,2.78
2022-09-28T12:39:57.634Z,2.67
2022-09-28T12:42:50.356Z,1.83
2022-09-28T12:45:47.731Z,2.80
2022-09-28T12:49:36.650Z,1.23
2022-09-28T12:51:50.500Z,5.32
2022-09-28T12:54:33.446Z,3.95
2022-09-28T12:57:13.032Z,1.33
2022-09-28T12:59:49.887Z,3.10
2022-09-28T13:02:37.774Z,2.08
2022-09-28T13:05:21.848Z,3.60
2022-09-28T13:07:56.103Z,5.32
2022-09-28T13:10:30.055Z,4.18
2022-09-28T13:13:11.971Z,5.13
2022-09-28T13:15:46.499Z,3.70
2022-09-28T13:18:21.110Z,0.70
2022-09-28T13:21:18.695Z,1.25
2022-09-28T13:23:47.223Z,4.88
2022-09-28T13:26:22.084Z,1.43
2022-09-28T13:28:50.565Z,1.33
2022-09-28T13:31:26.766Z,2.15
2022-09-28T13:33:58.198Z,2.17
2022-09-28T13:36:42.519Z,1.92
2022-09-28T13:39:37.496Z,4.57
2022-09-28T13:42:08.051Z,1.70
2022-09-28T13:45:10.706Z,1.60
2022-09-28T13:48:23.063Z,2.50
2022-09-28T13:51:31.271Z,1.98
2022-09-28T13:54:19.753Z,1.27
2022-09-28T13:57:12.814Z,2.70
2022-09-28T13:59:54.597Z,2.60
2022-09-28T14:02:43.132Z,1.77
2022-09-28T14:05:52.494Z,2.35
2022-09-28T14:08:28.526Z,1.80
2022-09-28T14:10:56.369Z,1.70
2022-09-28T14:14:02.409Z,1.75
2022-09-28T14:16:35.434Z,3.90
2022-09-28T14:19:07.625Z,4.10
2022-09-28T14:22:17.430Z,1.60
2022-09-28T14:25:08.595Z,1.45
2022-09-28T14:28:16.583Z,0.90
2022-09-28T14:30:49.263Z,1.73
2022-09-28T14:33:34.952Z,1.00
2022-09-28T14:39:20.297Z,1.77
2022-09-28T14:41:47.240Z,1.35
2022-09-28T14:44:15.171Z,1.23
2022-09-28T14:46:42.746Z,1.90
2022-09-28T14:49:44.815Z,2.47
2022-09-28T14:52:13.476Z,2.58
2022-09-28T14:54:54.143Z,3.58
2022-09-28T14:57:24.124Z,1.25
2022-09-28T15:00:13.752Z,2.22
2022-09-28T15:02:52.331Z,0.90
2022-09-28T15:05:23.803Z,1.42
2022-09-28T15:07:52.538Z,1.38
2022-09-28T15:10:27.967Z,3.53
2022-09-28T15:13:27.991Z,1.17
2022-09-28T15:15:59.793Z,2.13
2022-09-28T15:18:56.403Z,1.98
2022-09-28T15:21:33.216Z,1.73
2022-09-28T15:24:00.515Z,2.83
2022-09-28T15:26:31.657Z,0.98
2022-09-28T15:28:59.354Z,4.13
2022-09-28T15:31:28.199Z,1.45
2022-09-28T15:33:55.071Z,1.50
2022-09-28T15:36:25.135Z,2.80
2022-09-28T15:38:56.973Z,2.05
2022-09-28T15:41:24.716Z,3.13
2022-09-28T15:44:39.836Z,1.15
2022-09-28T15:47:11.820Z,1.30
2022-09-28T15:49:43.181Z,1.45
2022-09-28T15:52:24.103Z,2.88
2022-09-28T15:54:51.227Z,1.27
2022-09-28T15:57:33.843Z,1.35
2022-09-28T16:00:02.249Z,1.02
2022-09-28T16:02:31.763Z,0.60
2022-09-28T16:05:01.107Z,1.92
2022-09-28T16:07:36.152Z,2.77
2022-09-28T16:10:25.911Z,2.35
2022-09-28T16:12:58.347Z,2.10
2022-09-28T16:15:29.062Z,2.85
2022-09-28T16:17:57.746Z,0.60
2022-09-28T16:20:28.359Z,0.90
2022-09-28T16:22:56.129Z,0.63
2022-09-28T16:25:25.785Z,0.40
2022-09-28T16:27:55.636Z,0.98
2022-09-28T16:30:24.360Z,0.80
2022-09-28T16:32:56.373Z,1.87
2022-09-28T16:35:31.314Z,0.77
2022-09-28T16:38:04.681Z,0.65
2022-09-28T16:40:32.628Z,1.08
2022-09-28T16:43:02.109Z,1.63
2022-09-28T16:45:29.539Z,2.33
2022-09-28T16:47:58.290Z,0.90
2022-09-28T16:50:25.679Z,0.90
2022-09-28T16:53:00.066Z,1.25
2022-09-28T16:55:40.162Z,1.42
2022-09-28T16:58:07.448Z,1.97
2022-09-28T17:00:33.992Z,1.45
2022-09-28T17:03:14.907Z,1.08
2022-09-28T17:05:43.118Z,1.23
2022-09-28T17:08:13.889Z,1.48
2022-09-28T17:11:02.563Z,2.30
2022-09-28T17:13:33.138Z,6.82
2022-09-28T17:16:01.128Z,1.83
2022-09-28T17:18:29.723Z,2.05
2022-09-28T17:20:57.543Z,1.15
2022-09-28T17:23:26.436Z,1.27
2022-09-28T17:25:53.056Z,1.88
2022-09-28T17:28:23.269Z,2.75
2022-09-28T17:30:51.728Z,4.35
2022-09-28T17:33:21.468Z,2.55
2022-09-28T17:35:52.809Z,2.00
2022-09-28T17:38:19.693Z,1.35
2022-09-28T17:40:48.071Z,1.55
2022-09-28T17:43:14.772Z,1.20
2022-09-28T17:45:41.526Z,1.60
2022-09-28T17:48:13.016Z,2.97
2022-09-28T17:50:43.205Z,1.15
2022-09-28T17:53:14.025Z,2.10
2022-09-28T17:55:41.274Z,3.38
2022-09-28T17:58:19.001Z,3.47
2022-09-28T18:00:47.012Z,3.50
2022-09-28T18:03:15.705Z,7.40
2022-09-28T18:05:43.912Z,3.90
2022-09-28T18:08:16.974Z,2.85
2022-09-28T18:10:43.544Z,2.78
2022-09-28T18:13:10.099Z,3.47
2022-09-28T18:15:37.083Z,7.57
2022-09-28T18:18:04.242Z,5.43
2022-09-28T18:20:31.009Z,4.97
2022-09-28T18:22:57.732Z,5.38
2022-09-28T18:25:25.668Z,6.30
2022-09-28T18:27:52.304Z,4.68
2022-09-28T18:30:19.237Z,3.78
2022-09-28T18:32:51.345Z,4.32
2022-09-28T18:35:32.063Z,3.13
2022-09-28T18:37:58.748Z,4.50
2022-09-28T18:40:31.806Z,2.80
2022-09-28T18:43:11.971Z,4.47
2022-09-28T18:45:47.190Z,4.03
2022-09-28T18:48:19.029Z,3.00
2022-09-28T18:50:47.610Z,4.33
2022-09-28T18:53:14.234Z,3.10
2022-09-28T18:55:43.432Z,3.60
2022-09-28T18:58:10.898Z,4.68
2022-09-28T19:00:38.456Z,5.78
2022-09-28T19:03:05.353Z,5.43
2022-09-28T19:05:34.645Z,4.88
2022-09-28T19:08:04.435Z,6.60
2022-09-28T19:10:32.264Z,3.83
2022-09-28T19:13:00.217Z,6.10
2022-09-28T19:15:36.932Z,4.10
2022-09-28T19:18:05.247Z,3.75
2022-09-28T19:20:32.731Z,3.97
2022-09-28T19:22:59.606Z,4.00
2022-09-28T19:25:28.003Z,4.10
2022-09-28T19:27:54.681Z,4.27
2022-09-28T19:30:42.050Z,4.28
2022-09-28T19:33:08.857Z,4.15
2022-09-28T19:35:35.782Z,4.05
2022-09-28T19:38:02.686Z,7.03
2022-09-28T19:40:29.472Z,3.60
2022-09-28T19:42:56.823Z,4.35
2022-09-28T19:45:23.492Z,6.20
2022-09-28T19:48:17.852Z,4.18
2022-09-28T19:50:44.706Z,5.72
2022-09-28T19:53:11.573Z,4.30
2022-09-28T19:55:38.357Z,4.30
2022-09-28T19:58:07.830Z,4.10
2022-09-28T20:00:34.384Z,4.38
2022-09-28T20:03:00.985Z,4.63
2022-09-28T20:05:29.000Z,4.67
2022-09-28T20:07:58.654Z,6.95
2022-09-28T20:10:25.174Z,5.10
2022-09-28T20:12:52.024Z,5.20
2022-09-28T20:15:18.946Z,4.78
2022-09-28T20:17:45.800Z,7.87
2022-09-28T20:20:12.397Z,5.55
2022-09-28T20:22:40.339Z,7.75
2022-09-28T20:25:07.378Z,6.40
2022-09-28T20:27:33.981Z,8.20
2022-09-28T20:30:00.550Z,7.57
2022-09-28T20:32:27.387Z,6.47
2022-09-28T20:34:53.987Z,5.28
2022-09-28T20:37:20.525Z,6.75
2022-09-28T20:39:51.262Z,5.32
2022-09-28T20:42:18.052Z,5.27
2022-09-28T20:44:44.908Z,4.40
2022-09-28T20:47:11.712Z,5.20
2022-09-28T20:49:38.210Z,4.90
2022-09-28T20:52:04.962Z,4.70
2022-09-28T20:54:31.550Z,4.90
2022-09-28T20:57:02.549Z,3.83
2022-09-28T20:59:29.104Z,4.38
2022-09-28T21:01:55.690Z,4.07
2022-09-28T21:04:22.234Z,7.22
2022-09-28T21:06:56.177Z,5.53
2022-09-28T21:09:22.737Z,5.13
2022-09-28T21:11:49.703Z,5.88
2022-09-28T21:14:19.719Z,4.63
2022-09-28T21:16:46.521Z,4.35
2022-09-28T21:19:13.029Z,5.37
2022-09-28T21:21:39.868Z,6.55
2022-09-28T21:24:07.139Z,4.57
2022-09-28T21:26:34.030Z,4.75
2022-09-28T21:29:02.161Z,6.75
2022-09-28T21:31:32.425Z,4.40
2022-09-28T21:33:59.353Z,4.82
2022-09-28T21:36:27.941Z,4.97
2022-09-28T21:38:55.018Z,4.53
2022-09-28T21:41:23.106Z,5.15
2022-09-28T21:43:51.767Z,4.50
2022-09-28T21:46:18.710Z,4.05
2022-09-28T21:48:51.348Z,5.80
2022-09-28T21:51:18.269Z,9.40
2022-09-28T21:53:44.991Z,5.80
2022-09-28T21:56:13.038Z,5.83
2022-09-28T21:58:39.923Z,5.80
2022-09-28T22:01:08.910Z,5.97
2022-09-28T22:03:36.429Z,4.57
2022-09-28T22:06:05.067Z,5.00
2022-09-28T22:08:32.043Z,6.00
2022-09-28T22:10:59.203Z,4.70
2022-09-28T22:13:25.723Z,5.25
2022-09-28T22:15:52.994Z,6.53
2022-09-28T22:18:19.793Z,5.35
2022-09-28T22:20:46.304Z,4.60
2022-09-28T22:23:14.228Z,5.82
2022-09-28T22:25:40.781Z,6.72
2022-09-28T22:28:07.352Z,4.93
2022-09-28T22:30:34.161Z,5.05
2022-09-28T22:33:00.916Z,4.33
2022-09-28T22:35:27.652Z,8.68
2022-09-28T22:37:54.168Z,7.00
2022-09-28T22:40:22.434Z,6.80
2022-09-28T22:42:49.163Z,4.28
2022-09-28T22:45:15.691Z,5.40
2022-09-28T22:47:43.626Z,4.07
2022-09-28T22:50:10.273Z,4.30
2022-09-28T22:52:37.032Z,4.60
2022-09-28T22:55:04.124Z,7.00
2022-09-28T22:57:32.369Z,4.83
2022-09-28T22:59:59.065Z,5.20
2022-09-28T23:02:25.702Z,5.32
2022-09-28T23:04:52.243Z,8.05
2022-09-28T23:07:18.746Z,6.95
2022-09-28T23:09:46.321Z,6.90
2022-09-28T23:12:13.109Z,5.97
2022-09-28T23:14:40.995Z,6.88
2022-09-28T23:17:07.938Z,4.95
2022-09-28T23:19:34.461Z,4.25
2022-09-28T23:22:00.985Z,4.63
2022-09-28T23:24:27.503Z,5.28
2022-09-28T23:26:54.064Z,6.30
2022-09-28T23:29:20.758Z,4.85
2022-09-28T23:31:48.943Z,4.35
2022-09-28T23:34:15.477Z,5.57
2022-09-28T23:36:43.117Z,5.18
2022-09-28T23:39:10.415Z,6.03
2022-09-28T23:41:37.390Z,8.50
2022-09-28T23:44:05.484Z,4.75
2022-09-28T23:46:32.015Z,5.87
2022-09-28T23:49:00.153Z,5.85
2022-09-28T23:51:26.757Z,7.20
2022-09-28T23:53:53.345Z,5.28
2022-09-28T23:56:19.876Z,5.97
2022-09-28T23:58:46.444Z,6.90
